Time;durP1;ratioP1;P1;durP2;ratioP2;P2;SDS_P1;SDS_P2;PMS_P1;PMS_P2;Temp;Humidity;BMP_temperature;BMP_pressure;BME280_temperature;BME280_humidity;BME280_pressure;Samples;Min_cycle;Max_cycle;Signal;HPM_P1;HPM_P2
2024/01/14 00:01:30;;;;;;;;;;;-3.80;99.90;;;;;;4948051;28;20404;-69
2024/01/14 00:03:57;;;;;;;35.42;12.40;;;-3.80;99.90;;;;;;4951525;28;19962;-69
2024/01/14 00:06:24;;;;;;;35.22;13.10;;;-3.80;99.90;;;;;;4944214;28;20040;-68
2024/01/14 00:08:51;;;;;;;35.22;13.02;;;-3.80;99.90;;;;;;4951495;29;20047;-66
2024/01/14 00:11:18;;;;;;;31.80;12.50;;;-3.80;99.90;;;;;;4948436;29;20512;-65
2024/01/14 00:13:44;;;;;;;27.88;11.82;;;-3.70;99.90;;;;;;4949491;28;20039;-65
2024/01/14 00:16:11;;;;;;;27.55;11.43;;;-3.70;99.90;;;;;;4937218;29;20127;-64
2024/01/14 00:18:38;;;;;;;24.45;11.23;;;-3.70;99.90;;;;;;4946559;29;20087;-63
2024/01/14 00:21:05;;;;;;;29.58;11.50;;;-3.70;99.90;;;;;;4948495;29;20409;-64
2024/01/14 00:23:32;;;;;;;30.55;10.07;;;-3.70;99.90;;;;;;4943323;28;20062;-61
2024/01/14 00:25:59;;;;;;;20.83;9.20;;;-3.80;99.90;;;;;;4951083;29;20046;-61
2024/01/14 00:28:26;;;;;;;22.85;9.77;;;-3.80;99.90;;;;;;4949217;29;20043;-61
2024/01/14 00:30:52;;;;;;;27.02;10.15;;;-3.80;99.90;;;;;;4951888;29;20051;-62
2024/01/14 00:33:19;;;;;;;43.92;16.58;;;-3.90;99.90;;;;;;4944537;29;20386;-64
2024/01/14 00:35:46;;;;;;;43.13;16.30;;;-3.90;99.90;;;;;;4925276;29;20054;-63
2024/01/14 00:38:15;;;;;;;46.28;18.30;;;-3.90;99.90;;;;;;4945828;29;20059;-58
2024/01/14 00:40:42;;;;;;;41.85;17.48;;;-3.90;99.90;;;;;;4934626;29;20047;-59
2024/01/14 00:43:09;;;;;;;52.50;17.45;;;-3.90;99.90;;;;;;4946829;29;20420;-56
2024/01/14 00:45:36;;;;;;;45.60;17.52;;;-3.90;99.90;;;;;;4951366;28;20039;-58
2024/01/14 00:48:03;;;;;;;43.05;17.08;;;-4.00;99.90;;;;;;4953245;29;20081;-56
2024/01/14 00:50:30;;;;;;;44.83;18.33;;;-4.00;99.90;;;;;;4954534;29;20043;-58
2024/01/14 00:52:58;;;;;;;41.80;17.92;;;-4.00;99.90;;;;;;4954826;29;20062;-56
2024/01/14 00:55:25;;;;;;;51.60;19.17;;;-4.00;99.90;;;;;;4950993;28;20519;-54
2024/01/14 00:57:52;;;;;;;46.28;18.52;;;-3.90;99.90;;;;;;4953258;29;20524;-62
2024/01/14 01:00:19;;;;;;;43.10;18.20;;;-3.90;99.90;;;;;;4953437;29;20062;-60
2024/01/14 01:02:47;;;;;;;39.47;18.20;;;-3.90;99.90;;;;;;4953961;29;20130;-56
2024/01/14 01:05:14;;;;;;;44.90;18.35;;;-3.90;99.90;;;;;;4954422;28;20043;-56
2024/01/14 01:07:41;;;;;;;41.60;18.85;;;-3.90;99.90;;;;;;4953768;29;20062;-56
2024/01/14 01:10:09;;;;;;;48.22;18.20;;;-3.80;99.90;;;;;;4954979;29;20047;-57
2024/01/14 01:12:35;;;;;;;41.78;17.30;;;-3.90;99.90;;;;;;4935764;29;20065;-59
2024/01/14 01:15:05;;;;;;;37.28;16.55;;;-3.80;99.90;;;;;;4954836;28;20039;-62
2024/01/14 01:17:32;;;;;;;41.65;16.63;;;-3.80;99.90;;;;;;4933904;29;20524;-62
2024/01/14 01:20:00;;;;;;;36.92;14.30;;;-3.80;99.90;;;;;;4937699;29;20473;-63
2024/01/14 01:22:27;;;;;;;28.88;12.90;;;-3.80;99.90;;;;;;4954093;29;20043;-64
2024/01/14 01:24:54;;;;;;;22.92;9.68;;;-3.80;99.90;;;;;;4949702;28;20039;-64
2024/01/14 01:27:21;;;;;;;22.00;10.57;;;-3.80;99.90;;;;;;4953832;29;20054;-64
2024/01/14 01:29:48;;;;;;;23.38;9.70;;;-3.90;99.90;;;;;;4937560;29;20046;-61
2024/01/14 01:32:15;;;;;;;30.95;12.05;;;-3.90;99.90;;;;;;4954922;29;20047;-63
2024/01/14 01:34:43;;;;;;;29.67;12.48;;;-3.90;99.90;;;;;;4952092;28;20462;-63
2024/01/14 01:37:10;;;;;;;28.85;11.98;;;-3.90;99.90;;;;;;4954926;29;20504;-62
2024/01/14 01:39:37;;;;;;;31.65;12.40;;;-3.80;99.90;;;;;;4953297;29;20074;-63
2024/01/14 01:42:04;;;;;;;28.58;11.70;;;-3.80;99.90;;;;;;4937427;29;20458;-63
2024/01/14 01:44:31;;;;;;;;;;;-3.80;99.90;;;;;;4943383;28;20039;-64
2024/01/14 01:46:58;;;;;;;28.83;10.90;;;-3.80;99.90;;;;;;4954657;29;19973;-64
2024/01/14 01:49:26;;;;;;;23.08;8.88;;;-3.80;99.90;;;;;;4945111;29;20551;-62
2024/01/14 01:51:54;;;;;;;17.90;8.02;;;-3.80;99.90;;;;;;4946443;29;20074;-62
2024/01/14 01:54:24;;;;;;;18.50;8.40;;;-3.90;99.90;;;;;;4952506;28;20052;-63
2024/01/14 01:56:52;;;;;;;18.48;7.95;;;-4.00;99.90;;;;;;4952256;28;20046;-63
2024/01/14 01:59:20;;;;;;;15.35;7.28;;;-4.10;99.90;;;;;;4947821;29;20052;-63
2024/01/14 02:01:49;;;;;;;15.73;6.80;;;-4.20;99.90;;;;;;4949970;29;20071;-63
2024/01/14 02:04:17;;;;;;;16.17;7.07;;;-4.20;99.90;;;;;;4945080;28;20046;-63
2024/01/14 02:06:44;;;;;;;19.08;7.60;;;-4.40;99.90;;;;;;4951237;29;20082;-63
2024/01/14 02:09:11;;;;;;;17.00;7.18;;;-4.50;99.90;;;;;;4945931;29;20135;-62
2024/01/14 02:11:37;;;;;;;15.95;6.82;;;-4.50;99.90;;;;;;4953869;29;20070;-62
2024/01/14 02:14:05;;;;;;;14.68;6.90;;;-4.50;99.90;;;;;;4953340;28;20053;-61
2024/01/14 02:16:32;;;;;;;13.98;6.20;;;-4.60;99.90;;;;;;4945586;29;20130;-63
2024/01/14 02:19:00;;;;;;;14.60;5.95;;;-4.60;99.90;;;;;;4955003;29;20047;-63
2024/01/14 02:21:33;;;;;;;15.50;6.30;;;-4.70;99.90;;;;;;4953999;29;20050;-62
2024/01/14 02:24:15;;;;;;;15.50;6.47;;;-4.80;99.90;;;;;;4946210;28;20118;-61
2024/01/14 02:26:42;;;;;;;16.75;7.82;;;-4.80;99.90;;;;;;4936963;29;20066;-63
2024/01/14 02:29:11;;;;;;;18.08;7.55;;;-4.80;99.90;;;;;;4948293;29;20043;-63
2024/01/14 02:31:38;;;;;;;15.30;6.70;;;-4.90;99.90;;;;;;4953417;29;20520;-63
2024/01/14 02:34:06;;;;;;;13.32;6.00;;;-5.00;99.90;;;;;;4954132;28;20082;-63
2024/01/14 02:36:34;;;;;;;14.48;7.25;;;-5.00;99.90;;;;;;4945548;29;20086;-63
2024/01/14 02:39:00;;;;;;;16.23;6.53;;;-5.00;99.90;;;;;;4954351;29;20424;-63
2024/01/14 02:41:27;;;;;;;18.15;7.50;;;-5.00;99.90;;;;;;4953768;29;20050;-63
2024/01/14 02:43:54;;;;;;;14.45;6.32;;;-5.10;99.90;;;;;;4951360;28;20049;-62
2024/01/14 02:46:21;;;;;;;14.93;7.05;;;-5.10;99.90;;;;;;4948342;29;20070;-62
2024/01/14 02:48:47;;;;;;;22.30;10.02;;;-5.40;99.90;;;;;;4954162;29;20404;-62
2024/01/14 02:51:14;;;;;;;20.92;10.15;;;-5.40;99.90;;;;;;4953286;29;20054;-61
2024/01/14 02:53:42;;;;;;;21.70;10.05;;;-5.40;99.90;;;;;;4950203;28;20043;-63
2024/01/14 02:56:11;;;;;;;20.30;8.38;;;-5.30;99.90;;;;;;4947841;29;20130;-62
2024/01/14 02:58:38;;;;;;;21.90;8.45;;;-5.30;99.90;;;;;;4936731;29;20043;-63
2024/01/14 03:01:06;;;;;;;21.90;9.10;;;-5.20;99.90;;;;;;4934133;29;20454;-63
2024/01/14 03:03:32;;;;;;;;;;;-5.20;99.90;;;;;;4950590;28;20043;-63
2024/01/14 03:05:59;;;;;;;19.45;8.52;;;-5.20;99.90;;;;;;4946261;29;19936;-62
2024/01/14 03:08:27;;;;;;;21.45;10.30;;;-5.30;99.90;;;;;;4953240;28;20058;-62
2024/01/14 03:10:53;;;;;;;23.65;11.00;;;-5.30;99.90;;;;;;4946813;29;20362;-63
2024/01/14 03:13:20;;;;;;;30.50;11.85;;;-5.30;99.90;;;;;;4953414;29;20071;-63
2024/01/14 03:15:47;;;;;;;28.67;11.35;;;-5.20;99.90;;;;;;4951616;28;20053;-63
2024/01/14 03:18:15;;;;;;;21.83;11.05;;;-5.20;99.90;;;;;;4953721;29;20039;-63
2024/01/14 03:20:42;;;;;;;23.20;10.30;;;-5.30;99.90;;;;;;4949960;29;20162;-63
2024/01/14 03:23:09;;;;;;;27.48;11.48;;;-5.30;99.90;;;;;;4949661;29;20055;-62
2024/01/14 03:25:36;;;;;;;33.03;11.98;;;-5.40;99.90;;;;;;4952442;28;20051;-63
2024/01/14 03:28:03;;;;;;;27.67;10.57;;;-5.40;99.90;;;;;;4953697;29;20047;-63
2024/01/14 03:30:30;;;;;;;31.10;11.43;;;-5.40;99.90;;;;;;4953321;29;20043;-62
2024/01/14 03:32:57;;;;;;;27.20;11.65;;;-5.40;99.90;;;;;;4950913;29;20074;-62
2024/01/14 03:35:23;;;;;;;26.15;12.40;;;-5.40;99.90;;;;;;4952213;28;20051;-63
2024/01/14 03:37:50;;;;;;;26.70;10.70;;;-5.50;99.90;;;;;;4946371;29;20047;-63
2024/01/14 03:40:18;;;;;;;22.75;10.07;;;-5.50;99.90;;;;;;4953229;29;20050;-63
2024/01/14 03:42:45;;;;;;;26.30;10.98;;;-5.60;99.90;;;;;;4947507;29;20039;-63
2024/01/14 03:45:11;;;;;;;28.48;12.23;;;-5.60;99.90;;;;;;4951417;28;20117;-63
2024/01/14 03:47:38;;;;;;;28.17;11.15;;;-5.70;99.90;;;;;;4953418;29;20396;-63
2024/01/14 03:50:05;;;;;;;24.45;10.77;;;-5.70;99.90;;;;;;4945068;29;20553;-63
2024/01/14 03:52:32;;;;;;;23.48;9.60;;;-5.70;99.90;;;;;;4951778;29;20057;-63
2024/01/14 03:54:59;;;;;;;21.75;9.88;;;-5.70;99.90;;;;;;4936005;29;20051;-63
2024/01/14 03:57:25;;;;;;;21.02;9.57;;;-5.70;99.90;;;;;;4952526;29;20043;-63
2024/01/14 03:59:52;;;;;;;22.13;9.77;;;-5.70;99.90;;;;;;4953069;29;20553;-63
2024/01/14 04:02:19;;;;;;;21.45;8.63;;;-5.70;99.90;;;;;;4947608;29;20047;-63
2024/01/14 04:04:46;;;;;;;20.80;9.50;;;-5.70;99.90;;;;;;4951283;28;20548;-63
2024/01/14 04:07:13;;;;;;;19.33;7.95;;;-5.70;99.90;;;;;;4957134;28;20099;-63
2024/01/14 04:09:40;;;;;;;13.77;6.07;;;-5.70;99.90;;;;;;4956554;28;20043;-63
2024/01/14 04:12:08;;;;;;;;;;;-5.80;99.90;;;;;;4942830;29;20404;-63
2024/01/14 04:14:35;;;;;;;7.60;5.17;;;-5.90;99.90;;;;;;4953063;28;20269;-63
2024/01/14 04:17:02;;;;;;;12.05;5.30;;;-6.10;99.90;;;;;;4950779;29;20431;-63
2024/01/14 04:19:28;;;;;;;12.27;4.43;;;-6.20;99.90;;;;;;4953236;28;20104;-63
2024/01/14 04:21:55;;;;;;;9.48;3.92;;;-6.40;99.90;;;;;;4955263;29;20090;-63
2024/01/14 04:24:22;;;;;;;12.38;4.78;;;-6.50;99.90;;;;;;4955969;28;20040;-63
2024/01/14 04:26:49;;;;;;;6.80;3.33;;;-6.40;99.90;;;;;;4953045;29;20043;-63
2024/01/14 04:29:15;;;;;;;9.95;4.32;;;-6.50;99.90;;;;;;4956963;29;20031;-63
2024/01/14 04:31:42;;;;;;;8.07;3.60;;;-6.50;99.90;;;;;;4956553;29;20051;-63
2024/01/14 04:34:09;;;;;;;9.35;4.45;;;-6.50;99.90;;;;;;4948013;28;20043;-63
2024/01/14 04:36:36;;;;;;;10.65;4.85;;;-6.40;99.90;;;;;;4956716;29;20043;-63
2024/01/14 04:39:03;;;;;;;11.32;5.18;;;-6.40;99.90;;;;;;4956026;29;20111;-63
2024/01/14 04:41:30;;;;;;;10.20;4.97;;;-6.30;99.90;;;;;;4950172;29;20058;-63
2024/01/14 04:43:56;;;;;;;12.77;6.20;;;-6.20;99.90;;;;;;4956317;28;20082;-63
2024/01/14 04:46:23;;;;;;;11.43;4.97;;;-6.20;99.90;;;;;;4956174;29;20043;-63
2024/01/14 04:48:50;;;;;;;11.95;5.05;;;-6.20;99.90;;;;;;4953294;29;20042;-63
2024/01/14 04:51:18;;;;;;;12.70;5.05;;;-6.30;99.90;;;;;;4956176;29;20412;-63
2024/01/14 04:53:45;;;;;;;11.52;4.95;;;-6.30;99.90;;;;;;4956007;28;20035;-63
2024/01/14 04:56:12;;;;;;;13.57;6.35;;;-6.30;99.90;;;;;;4956291;29;20039;-63
2024/01/14 04:58:39;;;;;;;18.55;5.97;;;-6.40;99.90;;;;;;4952519;29;20043;-62
2024/01/14 05:01:06;;;;;;;15.18;6.07;;;-6.40;99.90;;;;;;4952216;29;20044;-63
2024/01/14 05:03:33;;;;;;;;;;;-6.30;99.90;;;;;;4956450;28;20050;-63
2024/01/14 05:06:00;;;;;;;10.45;4.10;;;-6.30;99.90;;;;;;4946904;29;20457;-63
2024/01/14 05:08:27;;;;;;;11.02;4.38;;;-6.40;99.90;;;;;;4955867;29;20118;-63
2024/01/14 05:10:54;;;;;;;5.90;2.90;;;-6.40;99.90;;;;;;4962547;28;20043;-63
2024/01/14 05:13:21;;;;;;;6.80;3.10;;;-6.40;99.90;;;;;;4955900;29;20049;-62
2024/01/14 05:15:47;;;;;;;8.38;3.75;;;-6.50;99.90;;;;;;4946152;28;20043;-63
2024/01/14 05:18:14;;;;;;;8.82;3.42;;;-6.60;99.90;;;;;;4932750;29;20173;-63
2024/01/14 05:20:41;;;;;;;8.30;3.30;;;-6.60;99.90;;;;;;4943383;28;20051;-63
2024/01/14 05:23:08;;;;;;;7.63;3.35;;;-6.70;99.90;;;;;;4950584;29;20039;-63
2024/01/14 05:25:35;;;;;;;6.95;3.25;;;-6.80;99.90;;;;;;4954754;28;20039;-63
2024/01/14 05:28:02;;;;;;;8.45;3.72;;;-6.80;99.90;;;;;;4947368;29;20088;-61
2024/01/14 05:30:28;;;;;;;6.30;3.13;;;-6.80;99.90;;;;;;4949784;28;20050;-63
2024/01/14 05:32:55;;;;;;;7.22;3.30;;;-6.80;99.90;;;;;;4951589;29;20058;-63
2024/01/14 05:35:22;;;;;;;7.63;3.90;;;-6.90;99.90;;;;;;4955351;28;20043;-62
2024/01/14 05:37:49;;;;;;;9.38;4.32;;;-7.10;99.90;;;;;;4948455;29;20074;-62
2024/01/14 05:40:16;;;;;;;7.70;3.63;;;-7.10;99.90;;;;;;4947773;29;20407;-63
2024/01/14 05:42:43;;;;;;;6.75;3.35;;;-7.00;99.90;;;;;;4954449;29;20061;-62
2024/01/14 05:45:10;;;;;;;11.13;3.47;;;-6.90;99.90;;;;;;4936900;29;20119;-63
2024/01/14 05:47:37;;;;;;;9.32;3.90;;;-7.00;99.90;;;;;;4955290;29;20100;-63
2024/01/14 05:50:05;;;;;;;;;;;-6.90;99.90;;;;;;4955806;29;20409;-62
2024/01/14 05:52:32;;;;;;;8.50;3.70;;;-7.00;99.90;;;;;;4955003;29;19930;-63
2024/01/14 05:54:59;;;;;;;7.88;3.15;;;-7.00;99.90;;;;;;4947980;29;20043;-63
2024/01/14 05:57:26;;;;;;;7.65;3.97;;;-7.10;99.90;;;;;;4955155;29;20043;-62
2024/01/14 05:59:53;;;;;;;;;;;-7.10;99.90;;;;;;4951579;29;20040;-63
2024/01/14 06:02:20;;;;;;;5.72;3.10;;;-7.00;99.90;;;;;;4950328;29;20419;-62
2024/01/14 06:04:47;;;;;;;6.80;3.45;;;-6.90;99.90;;;;;;4954016;28;20502;-63
2024/01/14 06:07:14;;;;;;;6.72;3.40;;;-6.90;99.90;;;;;;4954529;29;20057;-63
2024/01/14 06:09:41;;;;;;;;;;;-7.00;99.90;;;;;;4946935;29;20098;-62
2024/01/14 06:12:08;;;;;;;5.55;3.13;;;-7.00;99.90;;;;;;4954457;29;20383;-62
2024/01/14 06:14:36;;;;;;;5.93;2.70;;;-7.00;99.90;;;;;;4954462;28;20059;-62
2024/01/14 06:17:03;;;;;;;8.18;3.28;;;-7.00;99.90;;;;;;4954245;29;20056;-63
2024/01/14 06:19:30;;;;;;;9.80;3.70;;;-7.00;99.90;;;;;;4950147;29;20090;-61
2024/01/14 06:21:58;;;;;;;;;;;-7.00;99.90;;;;;;4951789;29;20047;-62
2024/01/14 06:24:24;;;;;;;6.45;2.80;;;-7.00;99.90;;;;;;4954578;28;19964;-63
2024/01/14 06:26:52;;;;;;;9.85;4.28;;;-7.10;99.90;;;;;;4954719;29;20043;-62
2024/01/14 06:29:19;;;;;;;10.15;4.22;;;-7.20;99.90;;;;;;4946871;29;20061;-62
2024/01/14 06:31:47;;;;;;;17.45;6.10;;;-7.30;99.90;;;;;;4952963;28;20039;-62
2024/01/14 06:34:13;;;;;;;14.98;6.25;;;-7.30;99.90;;;;;;4954109;28;20118;-61
2024/01/14 06:36:40;;;;;;;20.13;7.95;;;-7.40;99.90;;;;;;4953779;29;20097;-62
2024/01/14 06:39:07;;;;;;;13.35;5.60;;;-7.30;99.90;;;;;;4953957;29;20116;-62
2024/01/14 06:41:34;;;;;;;15.43;6.65;;;-7.30;99.90;;;;;;4944200;29;20074;-62
2024/01/14 06:44:01;;;;;;;19.58;8.10;;;-7.30;99.90;;;;;;4952492;28;20432;-62
2024/01/14 06:46:28;;;;;;;21.30;8.40;;;-7.20;99.90;;;;;;4953912;29;20044;-62
2024/01/14 06:48:55;;;;;;;;;;;-7.10;99.90;;;;;;4954479;29;20047;-62
2024/01/14 06:51:22;;;;;;;25.73;9.73;;;-7.00;99.90;;;;;;4948314;29;19922;-63
2024/01/14 06:53:48;;;;;;;24.65;10.75;;;-6.90;99.90;;;;;;4953996;28;20055;-62
2024/01/14 06:56:16;;;;;;;26.98;11.13;;;-6.80;99.90;;;;;;4952901;29;20043;-62
2024/01/14 06:58:43;;;;;;;30.05;12.13;;;-6.70;99.90;;;;;;4953210;29;20050;-62
2024/01/14 07:01:10;;;;;;;;;;;-6.60;99.90;;;;;;4948328;29;20090;-63
2024/01/14 07:03:40;;;;;;;44.90;17.30;;;-6.50;99.90;;;;;;4953931;28;19976;-62
2024/01/14 07:06:07;;;;;;;41.28;16.42;;;-6.50;99.90;;;;;;4953610;29;20073;-62
2024/01/14 07:08:34;;;;;;;;;;;-6.40;99.90;;;;;;4951798;29;20481;-62
2024/01/14 07:11:01;;;;;;;33.17;13.75;;;-6.30;99.90;;;;;;4950244;29;19933;-62
2024/01/14 07:13:28;;;;;;;35.03;13.07;;;-6.20;99.90;;;;;;4953684;28;20043;-63
2024/01/14 07:15:55;;;;;;;38.95;14.95;;;-6.20;99.90;;;;;;4953641;29;20506;-62
2024/01/14 07:18:22;;;;;;;;;;;-6.10;99.90;;;;;;4953056;29;20122;-61
2024/01/14 07:20:49;;;;;;;44.00;17.90;;;-6.00;99.90;;;;;;4953543;29;19961;-62
2024/01/14 07:23:16;;;;;;;38.58;16.35;;;-5.90;99.90;;;;;;4953633;29;20047;-63
2024/01/14 07:26:04;;;;;;;28.08;11.75;;;-5.90;99.90;;;;;;4945673;29;20044;-63
2024/01/14 07:28:31;;;;;;;26.48;10.60;;;-5.80;99.90;;;;;;4953756;29;20043;-63
2024/01/14 07:30:58;;;;;;;20.25;8.45;;;-5.80;99.90;;;;;;4953342;29;20054;-63
2024/01/14 07:33:25;;;;;;;21.02;8.43;;;-5.90;99.90;;;;;;4948123;29;20043;-63
2024/01/14 07:35:52;;;;;;;14.07;5.72;;;-5.90;99.90;;;;;;4948522;29;20039;-62
2024/01/14 07:38:19;;;;;;;13.82;5.88;;;-6.00;99.90;;;;;;4952763;29;20512;-63
2024/01/14 07:40:46;;;;;;;19.30;7.00;;;-6.10;99.90;;;;;;4952124;29;20054;-63
2024/01/14 07:43:12;;;;;;;14.10;6.15;;;-6.10;99.90;;;;;;4950396;29;20406;-62
2024/01/14 07:45:39;;;;;;;15.23;6.97;;;-6.20;99.90;;;;;;4946468;29;20043;-63
2024/01/14 07:48:06;;;;;;;;;;;-6.40;99.90;;;;;;4953625;29;20075;-63
2024/01/14 07:50:33;;;;;;;16.38;6.47;;;-6.40;99.90;;;;;;4953150;29;19922;-62
2024/01/14 07:53:00;;;;;;;26.00;6.43;;;-6.30;99.90;;;;;;4945787;29;20044;-63
2024/01/14 07:55:27;;;;;;;11.93;5.28;;;-6.20;99.90;;;;;;4955520;28;20043;-63
2024/01/14 07:57:55;;;;;;;17.48;5.78;;;-6.30;99.90;;;;;;4955772;29;20331;-63
2024/01/14 08:00:22;;;;;;;12.88;6.53;;;-6.40;99.90;;;;;;4952142;29;20043;-63
2024/01/14 08:02:48;;;;;;;20.35;6.80;;;-6.40;99.90;;;;;;4948720;29;20066;-63
2024/01/14 08:05:15;;;;;;;17.27;8.20;;;-6.40;99.90;;;;;;4956741;28;20039;-63
2024/01/14 08:07:42;;;;;;;15.93;7.53;;;-6.20;99.90;;;;;;4957081;29;20047;-63
2024/01/14 08:10:10;;;;;;;17.92;8.02;;;-6.00;99.90;;;;;;4956977;29;20039;-63
2024/01/14 08:12:37;;;;;;;23.98;8.52;;;-5.90;99.90;;;;;;4944575;29;20043;-62
2024/01/14 08:15:07;;;;;;;12.27;6.15;;;-5.70;99.90;;;;;;4956300;28;20130;-63
2024/01/14 08:17:34;;;;;;;15.13;6.15;;;-5.60;99.90;;;;;;4956719;29;20046;-62
2024/01/14 08:20:01;;;;;;;16.27;7.32;;;-5.50;99.90;;;;;;4950446;29;20051;-62
2024/01/14 08:22:28;;;;;;;15.90;6.70;;;-5.40;99.90;;;;;;4954297;29;20130;-62
2024/01/14 08:24:55;;;;;;;21.30;8.35;;;-5.40;99.90;;;;;;4950755;28;20110;-62
2024/01/14 08:27:22;;;;;;;39.50;10.57;;;-5.30;99.90;;;;;;4951304;29;20044;-62
2024/01/14 08:29:49;;;;;;;35.65;12.98;;;-5.10;99.90;;;;;;4956491;29;20047;-62
2024/01/14 08:32:15;;;;;;;38.70;15.18;;;-4.90;99.90;;;;;;4955240;29;20043;-62
2024/01/14 08:34:42;;;;;;;56.38;18.38;;;-4.80;99.90;;;;;;4956412;28;20120;-62
2024/01/14 08:37:09;;;;;;;43.45;18.17;;;-4.80;99.90;;;;;;4950902;29;20047;-62
2024/01/14 08:39:36;;;;;;;42.10;16.98;;;-4.70;99.90;;;;;;4956581;29;20453;-63
2024/01/14 08:42:03;;;;;;;43.78;14.82;;;-4.50;99.90;;;;;;4956373;29;20050;-63
2024/01/14 08:44:30;;;;;;;39.75;16.48;;;-4.60;99.90;;;;;;4936208;29;20065;-63
2024/01/14 08:46:56;;;;;;;45.28;17.38;;;-4.40;99.90;;;;;;4955049;29;20130;-63
2024/01/14 08:49:24;;;;;;;46.40;16.85;;;-4.30;99.90;;;;;;4947122;29;20059;-62
2024/01/14 08:51:51;;;;;;;44.70;16.85;;;-4.50;99.90;;;;;;4961806;28;20508;-63
2024/01/14 08:54:18;;;;;;;31.77;13.73;;;-4.40;99.90;;;;;;4954803;28;20063;-62
2024/01/14 08:56:45;;;;;;;32.90;12.40;;;-4.30;99.90;;;;;;4952954;29;20880;-63
2024/01/14 08:59:12;;;;;;;;;;;-4.20;99.90;;;;;;4953395;29;20051;-63
2024/01/14 09:01:39;;;;;;;34.03;14.52;;;-4.10;99.90;;;;;;4946916;29;20401;-62
2024/01/14 09:04:06;;;;;;;40.50;15.07;;;-3.90;99.90;;;;;;4956061;28;20051;-63
2024/01/14 09:06:35;;;;;;;;;;;-3.90;99.90;;;;;;4955386;28;20489;-63
2024/01/14 09:09:02;;;;;;;47.90;17.50;;;-3.80;99.90;;;;;;4956093;29;20356;-62
2024/01/14 09:11:28;;;;;;;53.50;19.05;;;-3.70;99.90;;;;;;4948756;29;20048;-63
2024/01/14 09:13:55;;;;;;;45.45;18.00;;;-3.90;99.90;;;;;;4955874;28;20051;-63
2024/01/14 09:16:22;;;;;;;55.40;18.42;;;-3.90;99.90;;;;;;4955688;29;20047;-63
2024/01/14 09:18:49;;;;;;;57.25;19.92;;;-3.90;99.90;;;;;;4954158;29;20035;-63
2024/01/14 09:21:16;;;;;;;54.58;19.23;;;-3.70;99.90;;;;;;4954870;29;20046;-63
2024/01/14 09:23:43;;;;;;;49.30;18.85;;;-3.60;99.90;;;;;;4955482;28;20039;-62
2024/01/14 09:26:10;;;;;;;47.90;19.30;;;-3.50;99.90;;;;;;4963198;28;20047;-63
2024/01/14 09:28:37;;;;;;;48.45;17.67;;;-3.50;99.90;;;;;;4948163;28;20045;-61
2024/01/14 09:31:04;;;;;;;51.95;19.08;;;-3.60;99.90;;;;;;4955523;29;20063;-62
2024/01/14 09:33:32;;;;;;;49.92;18.35;;;-3.50;99.90;;;;;;4951059;28;20044;-62
2024/01/14 09:36:09;;;;;;;52.58;19.23;;;-3.50;99.90;;;;;;4955193;29;20058;-63
2024/01/14 09:38:37;;;;;;;58.90;22.52;;;-3.40;99.90;;;;;;4955724;29;20039;-60
2024/01/14 09:41:28;;;;;;;49.00;19.08;;;-3.40;99.90;;;;;;4951926;29;20845;-63
2024/01/14 09:43:57;;;;;;;53.83;19.48;;;-3.30;99.90;;;;;;4949309;28;20043;-62
2024/01/14 09:46:24;;;;;;;48.08;18.75;;;-3.30;99.90;;;;;;4954742;29;20047;-61
2024/01/14 09:48:52;;;;;;;45.92;18.15;;;-3.30;99.90;;;;;;4954744;29;20039;-63
2024/01/14 09:51:27;;;;;;;52.38;19.15;;;-3.10;99.90;;;;;;4949629;29;20047;-62
2024/01/14 09:53:57;;;;;;;46.78;18.85;;;-3.10;99.90;;;;;;4955124;28;20551;-63
2024/01/14 09:56:24;;;;;;;46.83;19.60;;;-3.00;99.90;;;;;;4954902;29;20099;-61
2024/01/14 09:58:54;;;;;;;51.08;20.15;;;-3.20;99.90;;;;;;4950069;29;20484;-63
2024/01/14 10:01:22;;;;;;;47.38;19.92;;;-3.10;99.90;;;;;;4954758;29;20496;-63
2024/01/14 10:03:50;;;;;;;44.13;17.35;;;-3.20;99.90;;;;;;4954820;28;20043;-60
2024/01/14 10:06:17;;;;;;;48.92;20.02;;;-3.30;99.90;;;;;;4939394;29;20043;-62
2024/01/14 10:08:44;;;;;;;47.10;18.45;;;-3.50;99.90;;;;;;4946688;29;20374;-63
2024/01/14 10:11:10;;;;;;;44.45;17.75;;;-3.40;99.90;;;;;;4954764;29;20051;-62
2024/01/14 10:13:38;;;;;;;46.10;18.63;;;-3.50;99.90;;;;;;4946823;28;20125;-62
2024/01/14 10:16:05;;;;;;;52.92;19.90;;;-3.40;99.90;;;;;;4943576;29;20067;-62
2024/01/14 10:18:55;;;;;;;55.40;19.35;;;-3.60;99.90;;;;;;4955466;28;20106;-62
2024/01/14 10:21:24;;;;;;;48.17;18.52;;;-3.50;99.90;;;;;;4949971;29;20035;-63
2024/01/14 10:23:51;;;;;;;48.03;18.05;;;-3.40;99.90;;;;;;4944833;28;20063;-63
2024/01/14 10:26:22;;;;;;;42.97;17.77;;;-3.30;99.90;;;;;;4948839;29;20043;-61
2024/01/14 10:28:49;;;;;;;54.42;20.17;;;-3.10;99.90;;;;;;4945232;29;20053;-61
2024/01/14 10:31:16;;;;;;;46.90;18.42;;;-2.90;99.90;;;;;;4953383;29;20094;-61
2024/01/14 10:33:44;;;;;;;47.53;19.30;;;-2.70;99.90;;;;;;4954007;28;20131;-60
2024/01/14 10:36:13;;;;;;;53.78;19.63;;;-2.80;99.90;;;;;;4951286;29;20055;-60
2024/01/14 10:38:40;;;;;;;51.55;19.15;;;-3.00;99.90;;;;;;4952173;29;20044;-61
2024/01/14 10:41:07;;;;;;;47.20;17.48;;;-2.90;99.90;;;;;;4953573;29;20043;-60
2024/01/14 10:43:36;;;;;;;47.80;18.45;;;-2.90;99.90;;;;;;4953428;28;20503;-60
2024/01/14 10:46:05;;;;;;;40.38;19.63;;;-2.90;99.90;;;;;;4945950;29;20079;-61
2024/01/14 10:48:38;;;;;;;51.35;20.17;;;-2.80;99.90;;;;;;4953448;29;20078;-59
2024/01/14 10:51:09;;;;;;;44.83;19.05;;;-3.00;99.90;;;;;;4954022;29;20043;-61
2024/01/14 10:54:00;;;;;;;52.13;20.42;;;-3.00;99.90;;;;;;4953289;28;20082;-61
2024/01/14 10:56:34;;;;;;;49.83;20.50;;;-3.10;99.90;;;;;;4950628;29;20067;-60
2024/01/14 10:59:02;;;;;;;47.90;18.85;;;-3.10;99.90;;;;;;4952078;29;20047;-61
2024/01/14 11:01:33;;;;;;;49.90;20.67;;;-3.00;99.90;;;;;;4952026;29;20126;-61
2024/01/14 11:04:01;;;;;;;52.08;20.00;;;-2.90;99.90;;;;;;4950823;28;20043;-61
2024/01/14 11:06:28;;;;;;;53.58;20.00;;;-3.00;99.90;;;;;;4952825;29;20497;-61
2024/01/14 11:08:55;;;;;;;;;;;-3.00;99.90;;;;;;4951386;29;20047;-59
2024/01/14 11:11:35;;;;;;;55.13;19.33;;;-2.90;99.90;;;;;;4953034;29;20378;-60
2024/01/14 11:14:13;;;;;;;58.28;20.27;;;-2.90;99.90;;;;;;4949547;28;20051;-61
2024/01/14 11:16:50;;;;;;;58.70;20.67;;;-2.70;99.90;;;;;;4948930;28;20130;-61
2024/01/14 11:19:18;;;;;;;;;;;-2.60;99.90;;;;;;4950199;29;20466;-60
2024/01/14 11:22:22;;;;;;;49.25;18.08;;;-2.60;99.90;;;;;;4952741;29;19950;-61
2024/01/14 11:25:03;;;;;;;51.67;19.95;;;-2.70;99.90;;;;;;4945233;28;20036;-60
2024/01/14 11:27:31;;;;;;;52.78;20.15;;;-2.60;99.90;;;;;;4953294;29;20035;-60
2024/01/14 11:29:58;;;;;;;56.25;18.85;;;-2.60;99.90;;;;;;4952768;28;20082;-59
2024/01/14 11:32:26;;;;;;;44.97;19.35;;;-2.60;99.90;;;;;;4946373;29;20065;-61
2024/01/14 11:34:55;;;;;;;44.05;18.10;;;-2.60;99.90;;;;;;4945548;28;20063;-60
2024/01/14 11:37:42;;;;;;;50.15;19.52;;;-2.50;99.90;;;;;;4953156;29;20035;-61
2024/01/14 11:40:24;;;;;;;46.10;18.42;;;-2.40;99.90;;;;;;4952623;29;20043;-57
2024/01/14 11:43:05;;;;;;;50.15;18.25;;;-2.40;99.90;;;;;;4952947;29;20428;-61
2024/01/14 11:45:34;;;;;;;44.47;17.92;;;-2.30;99.90;;;;;;4951219;29;20047;-61
2024/01/14 11:48:03;;;;;;;51.63;18.17;;;-2.30;99.90;;;;;;4947617;29;20099;-59
2024/01/14 11:50:31;;;;;;;44.42;18.17;;;-2.30;99.90;;;;;;4947122;29;20047;-61
2024/01/14 11:53:00;;;;;;;46.63;17.75;;;-2.30;99.90;;;;;;4950917;29;20051;-60
2024/01/14 11:55:31;;;;;;;46.67;18.15;;;-2.10;99.90;;;;;;4952168;28;20118;-60
2024/01/14 11:58:10;;;;;;;49.85;18.70;;;-2.20;99.90;;;;;;4950497;29;20045;-61
2024/01/14 12:00:38;;;;;;;44.58;17.40;;;-2.00;99.90;;;;;;4948596;29;20412;-61
2024/01/14 12:03:13;;;;;;;39.05;16.80;;;-1.90;99.90;;;;;;4952565;29;20050;-60
2024/01/14 12:05:41;;;;;;;38.53;16.95;;;-1.90;99.90;;;;;;4949673;28;20058;-59
2024/01/14 12:08:09;;;;;;;36.88;14.65;;;-1.90;99.90;;;;;;4950890;29;20063;-59
2024/01/14 12:10:36;;;;;;;33.63;15.30;;;-1.90;99.90;;;;;;4952559;29;20047;-61
2024/01/14 12:13:06;;;;;;;36.60;15.98;;;-1.80;99.90;;;;;;4952508;29;20051;-61
2024/01/14 12:15:34;;;;;;;40.30;15.70;;;-1.80;99.90;;;;;;4952038;28;20078;-60
2024/01/14 12:18:05;;;;;;;35.08;15.20;;;-1.60;99.90;;;;;;4946317;29;20106;-59
2024/01/14 12:20:33;;;;;;;36.33;15.23;;;-1.60;99.90;;;;;;4952833;29;20043;-58
2024/01/14 12:23:02;;;;;;;34.25;14.35;;;-1.40;99.90;;;;;;4952805;29;20043;-60
2024/01/14 12:25:29;;;;;;;28.13;12.68;;;-1.40;99.90;;;;;;4932591;29;20131;-61
2024/01/14 12:27:58;;;;;;;29.17;12.43;;;-1.30;99.90;;;;;;4948446;28;20129;-61
2024/01/14 12:30:26;;;;;;;28.23;12.07;;;-1.20;99.90;;;;;;4953018;29;20106;-60
2024/01/14 12:32:53;;;;;;;27.30;11.80;;;-1.20;99.90;;;;;;4952432;29;20043;-61
2024/01/14 12:35:25;;;;;;;24.98;11.95;;;-1.10;99.90;;;;;;4952831;28;20051;-58
2024/01/14 12:37:52;;;;;;;25.63;11.63;;;-1.00;99.90;;;;;;4945538;29;20086;-61
2024/01/14 12:40:19;;;;;;;29.20;11.77;;;-1.00;99.90;;;;;;4952948;28;20470;-61
2024/01/14 12:42:46;;;;;;;29.77;11.23;;;-1.00;99.90;;;;;;4955907;29;20465;-61